createdAt,value
2018-12-07T00:00:56.238Z,858.77
2018-12-07T00:01:56.271Z,858.77
2018-12-07T00:02:56.230Z,858.70
2018-12-07T00:03:56.225Z,858.72
2018-12-07T00:04:56.204Z,858.71
2018-12-07T00:05:56.203Z,858.70
2018-12-07T00:06:56.217Z,858.65
2018-12-07T00:07:56.231Z,858.67
2018-12-07T00:08:56.151Z,858.64
2018-12-07T00:09:56.146Z,858.65
2018-12-07T00:10:56.134Z,858.63
2018-12-07T00:11:56.155Z,858.60
2018-12-07T00:12:56.119Z,858.61
2018-12-07T00:13:56.120Z,858.63
2018-12-07T00:14:56.098Z,858.65
2018-12-07T00:15:56.082Z,858.63
2018-12-07T00:16:56.103Z,858.65
2018-12-07T00:17:56.077Z,858.64
2018-12-07T00:18:56.089Z,858.63
2018-12-07T00:19:56.039Z,858.64
2018-12-07T00:20:56.030Z,858.64
2018-12-07T00:21:56.067Z,858.65
2018-12-07T00:22:56.045Z,858.64
2018-12-07T00:23:56.006Z,858.64
2018-12-07T00:24:55.996Z,858.58
2018-12-07T00:25:55.982Z,858.59
2018-12-07T00:26:55.965Z,858.59
2018-12-07T00:27:55.968Z,858.59
2018-12-07T00:28:55.944Z,858.57
2018-12-07T00:29:55.941Z,858.59
2018-12-07T00:30:55.918Z,858.57
2018-12-07T00:31:55.942Z,858.56
2018-12-07T00:32:55.920Z,858.53
2018-12-07T00:33:55.938Z,858.58
2018-12-07T00:34:55.886Z,858.61
2018-12-07T00:35:55.875Z,858.60
2018-12-07T00:36:55.854Z,858.54
2018-12-07T00:37:55.845Z,858.54
2018-12-07T00:38:55.881Z,858.54
2018-12-07T00:39:55.825Z,858.57
2018-12-07T00:40:55.823Z,858.56
2018-12-07T00:41:55.803Z,858.57
2018-12-07T00:42:55.799Z,858.57
2018-12-07T00:43:55.821Z,858.52
2018-12-07T00:44:55.781Z,858.55
2018-12-07T00:45:55.823Z,858.52
2018-12-07T00:46:55.800Z,858.49
2018-12-07T00:47:55.747Z,858.55
2018-12-07T00:48:55.768Z,858.52
2018-12-07T00:49:55.718Z,858.55
2018-12-07T00:50:55.730Z,858.51
2018-12-07T00:51:55.707Z,858.51
2018-12-07T00:52:55.745Z,858.51
2018-12-07T00:53:55.770Z,858.49
2018-12-07T00:54:55.670Z,858.46
2018-12-07T00:55:55.656Z,858.47
2018-12-07T00:56:55.659Z,858.48
2018-12-07T00:57:55.659Z,858.50
2018-12-07T00:58:55.641Z,858.52
2018-12-07T00:59:55.623Z,858.49
2018-12-07T01:00:55.611Z,858.47
2018-12-07T01:01:55.645Z,858.47
2018-12-07T01:02:55.620Z,858.46
2018-12-07T01:03:55.613Z,858.43
2018-12-07T01:04:55.642Z,858.42
2018-12-07T01:05:55.554Z,858.41
2018-12-07T01:06:55.542Z,858.45
2018-12-07T01:07:55.572Z,858.45
2018-12-07T01:08:55.521Z,858.46
2018-12-07T01:09:55.512Z,858.48
2018-12-07T01:10:55.501Z,858.51
2018-12-07T01:11:55.482Z,858.54
2018-12-07T01:12:55.507Z,858.52
2018-12-07T01:13:55.472Z,858.49
2018-12-07T01:14:55.452Z,858.53
2018-12-07T01:15:55.452Z,858.54
2018-12-07T01:16:55.434Z,858.54
2018-12-07T01:17:55.465Z,858.51
2018-12-07T01:18:55.526Z,858.54
2018-12-07T01:19:55.450Z,858.53
2018-12-07T01:20:55.402Z,858.49
2018-12-07T01:21:55.382Z,858.46
2018-12-07T01:22:55.381Z,858.46
2018-12-07T01:23:55.402Z,858.47
2018-12-07T01:24:55.345Z,858.46
2018-12-07T01:25:55.347Z,858.48
2018-12-07T01:26:55.329Z,858.48
2018-12-07T01:27:55.313Z,858.46
2018-12-07T01:28:55.330Z,858.50
2018-12-07T01:29:55.302Z,858.50
2018-12-07T01:30:55.298Z,858.49
2018-12-07T01:31:55.272Z,858.49
2018-12-07T01:32:55.267Z,858.50
2018-12-07T01:33:55.299Z,858.50
2018-12-07T01:34:55.257Z,858.52
2018-12-07T01:35:55.224Z,858.52
2018-12-07T01:36:55.235Z,858.54
2018-12-07T01:37:55.229Z,858.53
2018-12-07T01:38:55.233Z,858.49
2018-12-07T01:39:55.214Z,858.53
2018-12-07T01:40:55.233Z,858.53
2018-12-07T01:41:55.190Z,858.55
2018-12-07T01:42:55.167Z,858.52
2018-12-07T01:43:55.145Z,858.52
2018-12-07T01:44:55.132Z,858.59
2018-12-07T01:45:55.165Z,858.56
2018-12-07T01:46:55.135Z,858.53
2018-12-07T01:47:55.114Z,858.52
2018-12-07T01:48:55.092Z,858.49
2018-12-07T01:49:55.127Z,858.50
2018-12-07T01:50:55.087Z,858.50
2018-12-07T01:51:55.120Z,858.45
2018-12-07T01:52:55.098Z,858.41
2018-12-07T01:53:55.057Z,858.40
2018-12-07T01:54:55.044Z,858.39
2018-12-07T01:55:55.066Z,858.37
2018-12-07T01:56:55.064Z,858.33
2018-12-07T01:57:54.991Z,858.31
2018-12-07T01:58:55.018Z,858.31
2018-12-07T01:59:54.984Z,858.30
2018-12-07T02:00:55.020Z,858.35
2018-12-07T02:01:54.969Z,858.31
2018-12-07T02:02:54.943Z,858.30
2018-12-07T02:03:54.956Z,858.26
2018-12-07T02:04:54.925Z,858.28
2018-12-07T02:05:54.956Z,858.27
2018-12-07T02:06:54.925Z,858.24
2018-12-07T02:07:54.908Z,858.28
2018-12-07T02:08:54.875Z,858.22
2018-12-07T02:09:54.871Z,858.25
2018-12-07T02:10:54.915Z,858.22
2018-12-07T02:11:54.891Z,858.24
2018-12-07T02:12:54.828Z,858.21
2018-12-07T02:13:54.827Z,858.16
2018-12-07T02:14:54.833Z,858.16
2018-12-07T02:15:54.841Z,858.11
2018-12-07T02:16:54.814Z,858.11
2018-12-07T02:17:54.799Z,858.07
2018-12-07T02:18:54.776Z,858.06
2018-12-07T02:19:54.770Z,858.00
2018-12-07T02:20:54.762Z,858.05
2018-12-07T02:21:54.788Z,857.99
2018-12-07T02:22:54.752Z,858.02
2018-12-07T02:23:54.794Z,857.96
2018-12-07T02:24:54.712Z,857.95
2018-12-07T02:25:54.700Z,857.96
2018-12-07T02:26:54.709Z,857.94
2018-12-07T02:27:54.695Z,857.92
2018-12-07T02:28:54.657Z,857.90
2018-12-07T02:29:54.644Z,857.88
2018-12-07T02:30:54.642Z,857.86
2018-12-07T02:31:54.667Z,857.92
2018-12-07T02:32:54.627Z,857.88
2018-12-07T02:33:54.605Z,857.89
2018-12-07T02:34:54.597Z,857.85
2018-12-07T02:35:54.585Z,857.87
2018-12-07T02:36:54.612Z,857.86
2018-12-07T02:37:54.565Z,857.88
2018-12-07T02:38:54.582Z,857.85
2018-12-07T02:39:54.545Z,857.90
2018-12-07T02:40:54.554Z,857.89
2018-12-07T02:41:54.568Z,857.85
2018-12-07T02:42:54.515Z,857.86
2018-12-07T02:43:54.510Z,857.80
2018-12-07T02:44:54.503Z,857.82
2018-12-07T02:45:54.487Z,857.79
2018-12-07T02:46:54.500Z,857.80
2018-12-07T02:47:54.471Z,857.80
2018-12-07T02:48:54.508Z,857.80
2018-12-07T02:49:54.436Z,857.74
2018-12-07T02:50:54.430Z,857.72
2018-12-07T02:51:54.438Z,857.76
2018-12-07T02:52:54.403Z,857.77
2018-12-07T02:53:54.433Z,857.73
2018-12-07T02:54:54.467Z,857.79
2018-12-07T02:55:54.375Z,857.80
2018-12-07T02:56:54.369Z,857.74
2018-12-07T02:57:54.355Z,857.79
2018-12-07T02:58:54.379Z,857.78
2018-12-07T02:59:54.350Z,857.74
2018-12-07T03:00:54.332Z,857.77
2018-12-07T03:01:54.337Z,857.75
2018-12-07T03:02:54.308Z,857.74
2018-12-07T03:03:54.341Z,857.71
2018-12-07T03:04:54.277Z,857.72
2018-12-07T03:05:54.266Z,857.72
2018-12-07T03:06:54.252Z,857.73
2018-12-07T03:07:54.241Z,857.64
2018-12-07T03:08:54.272Z,857.68
2018-12-07T03:09:54.223Z,857.65
2018-12-07T03:10:54.253Z,857.66
2018-12-07T03:11:54.258Z,857.64
2018-12-07T03:12:54.233Z,857.64
2018-12-07T03:13:54.181Z,857.62
2018-12-07T03:14:54.169Z,857.62
2018-12-07T03:15:54.167Z,857.62
2018-12-07T03:16:54.157Z,857.61
2018-12-07T03:17:54.183Z,857.62
2018-12-07T03:18:54.126Z,857.56
2018-12-07T03:19:54.124Z,857.57
2018-12-07T03:20:54.115Z,857.60
2018-12-07T03:21:54.107Z,857.54
2018-12-07T03:22:54.121Z,857.56
2018-12-07T03:23:54.076Z,857.58
2018-12-07T03:24:54.072Z,857.54
2018-12-07T03:25:54.052Z,857.55
2018-12-07T03:26:54.040Z,857.58
2018-12-07T03:27:54.041Z,857.57
2018-12-07T03:28:54.060Z,857.57
2018-12-07T03:29:54.015Z,857.56
2018-12-07T03:30:54.008Z,857.59
2018-12-07T03:31:53.986Z,857.58
2018-12-07T03:32:53.996Z,857.54
2018-12-07T03:33:54.028Z,857.55
2018-12-07T03:34:53.970Z,857.53
2018-12-07T03:35:53.944Z,857.56
2018-12-07T03:36:53.945Z,857.60
2018-12-07T03:37:53.923Z,857.60
2018-12-07T03:38:53.956Z,857.53
2018-12-07T03:39:53.971Z,857.57
2018-12-07T03:40:53.898Z,857.51
2018-12-07T03:41:53.885Z,857.54
2018-12-07T03:42:53.895Z,857.50
2018-12-07T03:43:53.892Z,857.50
2018-12-07T03:44:53.867Z,857.49
2018-12-07T03:45:53.877Z,857.48
2018-12-07T03:46:53.856Z,857.50
2018-12-07T03:47:53.817Z,857.46
2018-12-07T03:48:53.844Z,857.43
2018-12-07T03:49:53.815Z,857.41
2018-12-07T03:50:53.840Z,857.38
2018-12-07T03:51:53.784Z,857.40
2018-12-07T03:52:53.776Z,857.42
2018-12-07T03:53:53.764Z,857.41
2018-12-07T03:54:53.736Z,857.37
2018-12-07T03:55:53.779Z,857.37
2018-12-07T03:56:53.752Z,857.35
2018-12-07T03:57:53.708Z,857.35
2018-12-07T03:58:53.706Z,857.33
2018-12-07T03:59:53.689Z,857.30
2018-12-07T04:00:53.719Z,857.31
2018-12-07T04:01:53.678Z,857.23
2018-12-07T04:02:53.654Z,857.24
2018-12-07T04:03:53.647Z,857.19
2018-12-07T04:04:53.633Z,857.17
2018-12-07T04:05:53.655Z,857.13
2018-12-07T04:06:53.631Z,857.15
2018-12-07T04:07:53.697Z,857.11
2018-12-07T04:08:53.627Z,857.08
2018-12-07T04:09:53.583Z,857.05
2018-12-07T04:10:53.563Z,857.04
2018-12-07T04:11:53.555Z,857.10
2018-12-07T04:12:53.549Z,857.06
2018-12-07T04:13:53.585Z,857.07
2018-12-07T04:14:53.525Z,857.07
2018-12-07T04:15:53.514Z,857.06
2018-12-07T04:16:53.516Z,857.10
2018-12-07T04:17:53.494Z,857.09
2018-12-07T04:18:53.536Z,857.05
2018-12-07T04:19:53.494Z,857.06
2018-12-07T04:20:53.462Z,857.03
2018-12-07T04:21:53.455Z,856.99
2018-12-07T04:22:53.451Z,857.03
2018-12-07T04:23:53.474Z,857.04
2018-12-07T04:24:53.434Z,856.98
2018-12-07T04:25:53.407Z,857.03
2018-12-07T04:26:53.404Z,857.00
2018-12-07T04:27:53.398Z,856.96
2018-12-07T04:28:53.430Z,856.97
2018-12-07T04:29:53.384Z,856.97
2018-12-07T04:30:53.362Z,856.96
2018-12-07T04:31:53.347Z,857.00
2018-12-07T04:32:53.332Z,856.95
2018-12-07T04:33:53.373Z,856.97
2018-12-07T04:34:53.356Z,856.95
2018-12-07T04:35:53.308Z,856.94
2018-12-07T04:36:53.301Z,856.99
2018-12-07T04:37:53.318Z,856.92
2018-12-07T04:38:53.275Z,856.96
2018-12-07T04:39:53.271Z,856.92
2018-12-07T04:40:53.266Z,856.93
2018-12-07T04:41:53.237Z,856.88
2018-12-07T04:42:53.278Z,856.93
2018-12-07T04:43:53.229Z,856.93
2018-12-07T04:44:53.265Z,856.89
2018-12-07T04:45:53.207Z,856.88
2018-12-07T04:46:53.186Z,856.86
2018-12-07T04:47:53.175Z,856.94
2018-12-07T04:48:53.163Z,856.95
2018-12-07T04:49:53.197Z,856.90
2018-12-07T04:50:53.172Z,856.91
2018-12-07T04:51:53.132Z,856.85
2018-12-07T04:52:53.134Z,856.90
2018-12-07T04:53:53.105Z,856.90
2018-12-07T04:54:53.144Z,856.94
2018-12-07T04:55:53.094Z,856.92
2018-12-07T04:56:53.086Z,856.91
2018-12-07T04:57:53.167Z,856.94
2018-12-07T04:58:53.094Z,856.92
2018-12-07T04:59:53.057Z,856.89
2018-12-07T05:00:53.087Z,856.94
2018-12-07T05:01:53.026Z,856.91
2018-12-07T05:02:53.021Z,856.89
2018-12-07T05:03:53.004Z,856.93
2018-12-07T05:04:53.050Z,856.93
2018-12-07T05:05:52.994Z,856.87
2018-12-07T05:06:52.983Z,856.84
2018-12-07T05:07:52.959Z,856.82
2018-12-07T05:08:52.981Z,856.79
2018-12-07T05:09:52.982Z,856.80
2018-12-07T05:10:52.932Z,856.79
2018-12-07T05:11:52.955Z,856.80
2018-12-07T05:12:52.974Z,856.82
2018-12-07T05:13:52.901Z,856.85
2018-12-07T05:14:52.935Z,856.82
2018-12-07T05:15:52.922Z,856.81
2018-12-07T05:16:52.869Z,856.86
2018-12-07T05:17:52.888Z,856.88
2018-12-07T05:18:52.844Z,856.87
2018-12-07T05:19:52.833Z,856.83
2018-12-07T05:20:52.868Z,856.84
2018-12-07T05:21:52.813Z,856.85
2018-12-07T05:22:52.802Z,856.82
2018-12-07T05:23:52.817Z,856.80
2018-12-07T05:24:52.813Z,856.83
2018-12-07T05:25:52.818Z,856.82
2018-12-07T05:26:52.776Z,856.83
2018-12-07T05:27:52.754Z,856.85
2018-12-07T05:28:52.741Z,856.80
2018-12-07T05:29:52.726Z,856.83
2018-12-07T05:30:52.754Z,856.81
2018-12-07T05:31:52.765Z,856.80
2018-12-07T05:32:52.705Z,856.77
2018-12-07T05:33:52.693Z,856.81
2018-12-07T05:34:52.684Z,856.82
2018-12-07T05:35:52.718Z,856.75
2018-12-07T05:36:52.678Z,856.76
2018-12-07T05:37:52.663Z,856.76
2018-12-07T05:38:52.661Z,856.76
2018-12-07T05:39:52.631Z,856.78
2018-12-07T05:40:52.643Z,856.72
2018-12-07T05:41:52.602Z,856.69
2018-12-07T05:42:52.590Z,856.69
2018-12-07T05:43:52.614Z,856.75
2018-12-07T05:44:52.609Z,856.69
2018-12-07T05:45:52.567Z,856.73
2018-12-07T05:46:52.550Z,856.71
2018-12-07T05:47:52.568Z,856.71
2018-12-07T05:48:52.579Z,856.67
2018-12-07T05:49:52.523Z,856.69
2018-12-07T05:50:52.573Z,856.68
2018-12-07T05:51:52.488Z,856.67
2018-12-07T05:52:52.480Z,856.61
2018-12-07T05:53:52.504Z,856.63
2018-12-07T05:54:52.487Z,856.60
2018-12-07T05:55:52.487Z,856.57
2018-12-07T05:56:52.437Z,856.58
2018-12-07T05:57:52.447Z,856.55
2018-12-07T05:58:52.425Z,856.56
2018-12-07T05:59:52.413Z,856.54
2018-12-07T06:00:52.450Z,856.54
2018-12-07T06:01:52.387Z,856.57
2018-12-07T06:02:52.368Z,856.58
2018-12-07T06:03:52.362Z,856.54
2018-12-07T06:04:52.407Z,856.54
2018-12-07T06:05:52.366Z,856.53
2018-12-07T06:06:52.335Z,856.53
2018-12-07T06:07:52.326Z,856.50
2018-12-07T06:08:52.305Z,856.44
2018-12-07T06:09:52.336Z,856.48
2018-12-07T06:10:52.294Z,856.48
2018-12-07T06:11:52.276Z,856.47
2018-12-07T06:12:52.291Z,856.47
2018-12-07T06:13:52.256Z,856.38
2018-12-07T06:14:52.282Z,856.39
2018-12-07T06:15:52.236Z,856.38
2018-12-07T06:16:52.228Z,856.42
2018-12-07T06:17:52.213Z,856.44
2018-12-07T06:18:52.226Z,856.45
2018-12-07T06:19:52.234Z,856.39
2018-12-07T06:20:52.204Z,856.38
2018-12-07T06:21:52.169Z,856.35
2018-12-07T06:22:52.157Z,856.33
2018-12-07T06:23:52.150Z,856.36
2018-12-07T06:24:52.186Z,856.34
2018-12-07T06:25:52.173Z,856.32
2018-12-07T06:26:52.114Z,856.35
2018-12-07T06:27:52.110Z,856.30
2018-12-07T06:28:52.092Z,856.28
2018-12-07T06:29:52.092Z,856.29
2018-12-07T06:30:52.114Z,856.32
2018-12-07T06:31:52.084Z,856.29
2018-12-07T06:32:52.052Z,856.29
2018-12-07T06:33:52.044Z,856.29
2018-12-07T06:34:52.033Z,856.27
2018-12-07T06:35:52.015Z,856.29
2018-12-07T06:36:52.075Z,856.30
2018-12-07T06:37:52.028Z,856.27
2018-12-07T06:38:52.014Z,856.30
2018-12-07T06:39:52.370Z,856.32
2018-12-07T06:40:52.003Z,856.31
2018-12-07T06:41:51.961Z,856.32
2018-12-07T06:42:51.946Z,856.31
2018-12-07T06:43:51.963Z,856.33
2018-12-07T06:44:52.018Z,856.29
2018-12-07T06:45:51.948Z,856.32
2018-12-07T06:46:51.923Z,856.31
2018-12-07T06:47:51.894Z,856.36
2018-12-07T06:48:51.896Z,856.29
2018-12-07T06:49:51.906Z,856.32
2018-12-07T06:50:51.912Z,856.33
2018-12-07T06:51:51.846Z,856.35
2018-12-07T06:52:51.855Z,856.29
2018-12-07T06:53:51.827Z,856.35
2018-12-07T06:54:51.820Z,856.30
2018-12-07T06:55:51.841Z,856.27
2018-12-07T06:56:51.823Z,856.34
2018-12-07T06:57:51.830Z,856.31
2018-12-07T06:58:51.778Z,856.29
2018-12-07T06:59:51.772Z,856.34
2018-12-07T07:00:51.756Z,856.39
2018-12-07T07:01:51.742Z,856.34
2018-12-07T07:02:51.793Z,856.39
2018-12-07T07:03:51.729Z,856.36
2018-12-07T07:04:51.707Z,856.37
2018-12-07T07:05:51.719Z,856.32
2018-12-07T07:06:51.690Z,856.37
2018-12-07T07:07:51.717Z,856.37
2018-12-07T07:08:51.706Z,856.33
2018-12-07T07:09:51.684Z,856.33
2018-12-07T07:10:51.644Z,856.32
2018-12-07T07:11:51.644Z,856.30
2018-12-07T07:12:51.629Z,856.34
2018-12-07T07:13:51.694Z,856.28
2018-12-07T07:14:51.642Z,856.30
2018-12-07T07:15:51.613Z,856.30
2018-12-07T07:16:51.582Z,856.28
2018-12-07T07:17:51.585Z,856.28
2018-12-07T07:18:51.605Z,856.19
2018-12-07T07:19:51.551Z,856.24
2018-12-07T07:20:51.538Z,856.15
2018-12-07T07:21:51.529Z,856.15
2018-12-07T07:22:51.567Z,856.16
2018-12-07T07:23:52.163Z,856.16
2018-12-07T07:24:51.600Z,856.13
2018-12-07T07:25:51.648Z,856.12
2018-12-07T07:26:51.490Z,856.12
2018-12-07T07:27:51.469Z,856.20
2018-12-07T07:28:51.460Z,856.13
2018-12-07T07:29:51.462Z,856.11
2018-12-07T07:30:51.443Z,856.10
2018-12-07T07:31:51.472Z,856.16
2018-12-07T07:32:51.417Z,856.14
2018-12-07T07:33:51.399Z,856.11
2018-12-07T07:34:51.410Z,856.07
2018-12-07T07:35:51.392Z,856.13
2018-12-07T07:36:51.414Z,856.09
2018-12-07T07:37:51.428Z,856.08
2018-12-07T07:38:51.351Z,856.08
2018-12-07T07:39:51.361Z,856.07
2018-12-07T07:40:51.330Z,856.07
2018-12-07T07:41:51.347Z,856.08
2018-12-07T07:42:51.309Z,856.07
2018-12-07T07:43:51.289Z,856.05
2018-12-07T07:44:51.279Z,856.06
2018-12-07T07:45:51.271Z,856.07
2018-12-07T07:46:51.315Z,856.07
2018-12-07T07:47:51.294Z,856.04
2018-12-07T07:48:51.281Z,856.02
2018-12-07T07:49:51.223Z,855.99
2018-12-07T07:50:51.231Z,856.02
2018-12-07T07:51:51.210Z,855.98
2018-12-07T07:52:51.233Z,855.95
2018-12-07T07:53:51.239Z,855.90
2018-12-07T07:54:51.181Z,855.89
2018-12-07T07:55:51.165Z,855.87
2018-12-07T07:56:51.152Z,855.87
2018-12-07T07:57:51.157Z,855.85
2018-12-07T07:58:51.178Z,855.85
2018-12-07T07:59:52.062Z,855.78
2018-12-07T08:00:51.127Z,855.78
2018-12-07T08:01:51.101Z,855.81
2018-12-07T08:02:51.085Z,855.75
2018-12-07T08:03:51.109Z,855.78
2018-12-07T08:04:51.064Z,855.77
2018-12-07T08:05:51.089Z,855.78
2018-12-07T08:06:51.060Z,855.80
2018-12-07T08:07:51.069Z,855.78
2018-12-07T08:08:51.032Z,855.79
2018-12-07T08:09:51.012Z,855.80
2018-12-07T08:10:50.999Z,855.84
2018-12-07T08:11:51.018Z,855.83
2018-12-07T08:12:51.025Z,855.80
2018-12-07T08:13:50.975Z,855.84
2018-12-07T08:14:50.960Z,855.79
2018-12-07T08:15:50.947Z,855.76
2018-12-07T08:16:50.981Z,855.75
2018-12-07T08:17:50.924Z,855.75
2018-12-07T08:18:50.934Z,855.70
2018-12-07T08:19:50.896Z,855.71
2018-12-07T08:20:50.894Z,855.71
2018-12-07T08:21:50.924Z,855.70
2018-12-07T08:22:50.880Z,855.73
2018-12-07T08:23:50.858Z,855.72
2018-12-07T08:24:50.862Z,855.76
2018-12-07T08:25:50.840Z,855.73
2018-12-07T08:26:50.859Z,855.74
2018-12-07T08:27:50.843Z,855.72
2018-12-07T08:28:50.806Z,855.77
2018-12-07T08:29:50.804Z,855.71
2018-12-07T08:30:50.788Z,855.72
2018-12-07T08:31:50.820Z,855.71
2018-12-07T08:32:50.764Z,855.73
2018-12-07T08:33:50.760Z,855.68
2018-12-07T08:34:50.749Z,855.71
2018-12-07T08:35:55.759Z,855.71
2018-12-07T08:36:50.756Z,855.70
2018-12-07T08:37:50.720Z,855.71
2018-12-07T08:38:50.710Z,855.73
2018-12-07T08:39:50.710Z,855.77
2018-12-07T08:40:50.690Z,855.80
2018-12-07T08:41:50.692Z,855.76
2018-12-07T08:42:50.654Z,855.78
2018-12-07T08:43:50.661Z,855.85
2018-12-07T08:44:50.670Z,855.77
2018-12-07T08:45:50.638Z,855.79
2018-12-07T08:46:50.606Z,855.73
2018-12-07T08:47:50.599Z,855.74
2018-12-07T08:48:50.584Z,855.71
2018-12-07T08:49:50.613Z,855.75
2018-12-07T08:50:50.571Z,855.68
2018-12-07T08:51:50.577Z,855.67
2018-12-07T08:52:50.555Z,855.66
2018-12-07T08:53:50.535Z,855.68
2018-12-07T08:54:50.556Z,855.69
2018-12-07T08:55:50.545Z,855.70
2018-12-07T08:56:50.502Z,855.65
2018-12-07T08:57:50.517Z,855.66
2018-12-07T08:58:50.478Z,855.66
2018-12-07T08:59:50.511Z,855.63
2018-12-07T09:00:50.469Z,855.59
2018-12-07T09:01:50.471Z,855.55
2018-12-07T09:02:50.435Z,855.52
2018-12-07T09:03:50.426Z,855.48
2018-12-07T09:04:50.446Z,855.47
2018-12-07T09:05:50.439Z,855.42
2018-12-07T09:06:50.417Z,855.35
2018-12-07T09:07:50.386Z,855.31
2018-12-07T09:08:50.367Z,855.29
2018-12-07T09:09:50.374Z,855.26
2018-12-07T09:10:50.383Z,855.27
2018-12-07T09:11:50.342Z,855.25
2018-12-07T09:12:50.330Z,855.23
2018-12-07T09:13:50.328Z,855.23
2018-12-07T09:14:50.302Z,855.23
2018-12-07T09:15:50.351Z,855.23
2018-12-07T09:16:50.305Z,855.23
2018-12-07T09:17:50.289Z,855.19
2018-12-07T09:18:50.268Z,855.20
2018-12-07T09:19:50.264Z,855.22
2018-12-07T09:20:53.895Z,855.17
2018-12-07T09:21:50.261Z,855.23
2018-12-07T09:22:50.228Z,855.24
2018-12-07T09:23:50.212Z,855.18
2018-12-07T09:24:50.201Z,855.20
2018-12-07T09:25:50.236Z,855.17
2018-12-07T09:26:50.225Z,855.23
2018-12-07T09:27:50.198Z,855.17
2018-12-07T09:28:50.174Z,855.22
2018-12-07T09:29:50.147Z,855.16
2018-12-07T09:30:50.133Z,855.18
2018-12-07T09:31:50.170Z,855.17
2018-12-07T09:32:50.140Z,855.14
2018-12-07T09:33:50.113Z,855.19
2018-12-07T09:34:50.128Z,855.18
2018-12-07T09:35:50.090Z,855.17
2018-12-07T09:36:50.126Z,855.18
2018-12-07T09:37:50.081Z,855.13
2018-12-07T09:38:50.047Z,855.14
2018-12-07T09:39:50.056Z,855.13
2018-12-07T09:40:55.453Z,855.10
2018-12-07T09:41:50.097Z,855.15
2018-12-07T09:42:50.130Z,855.07
2018-12-07T09:43:50.013Z,855.06
2018-12-07T09:44:49.983Z,855.01
2018-12-07T09:45:49.994Z,855.07
2018-12-07T09:46:49.964Z,855.04
2018-12-07T09:47:50.000Z,854.99
2018-12-07T09:48:49.949Z,854.99
2018-12-07T09:49:49.958Z,854.99
2018-12-07T09:50:49.932Z,854.90
2018-12-07T09:51:49.909Z,854.95
2018-12-07T09:52:49.943Z,854.87
2018-12-07T09:53:49.893Z,854.85
2018-12-07T09:54:49.879Z,854.81
2018-12-07T09:55:49.867Z,854.81
2018-12-07T09:56:49.872Z,854.81
2018-12-07T09:57:49.896Z,854.69
2018-12-07T09:58:49.836Z,854.74
2018-12-07T09:59:49.821Z,854.69
2018-12-07T10:00:49.814Z,854.71
2018-12-07T10:01:49.816Z,854.67
2018-12-07T10:02:49.832Z,854.66
2018-12-07T10:03:49.799Z,854.64
2018-12-07T10:04:49.789Z,854.65
2018-12-07T10:05:49.761Z,854.64
2018-12-07T10:06:49.770Z,854.63
2018-12-07T10:07:49.786Z,854.65
2018-12-07T10:08:49.736Z,854.58
2018-12-07T10:09:49.743Z,854.51
2018-12-07T10:10:49.738Z,854.53
2018-12-07T10:11:49.712Z,854.51
2018-12-07T10:12:49.743Z,854.46
2018-12-07T10:13:49.681Z,854.45
2018-12-07T10:14:49.683Z,854.48
2018-12-07T10:15:49.651Z,854.45
2018-12-07T10:16:49.680Z,854.39
2018-12-07T10:17:49.631Z,854.41
2018-12-07T10:18:49.644Z,854.38
2018-12-07T10:19:49.606Z,854.32
2018-12-07T10:20:49.610Z,854.34
2018-12-07T10:21:49.620Z,854.31
2018-12-07T10:22:49.595Z,854.33
2018-12-07T10:23:49.591Z,854.31
2018-12-07T10:24:49.568Z,854.28
2018-12-07T10:25:49.549Z,854.29
2018-12-07T10:26:49.570Z,854.26
2018-12-07T10:27:49.541Z,854.15
2018-12-07T10:28:49.510Z,854.18
2018-12-07T10:29:49.526Z,854.13
2018-12-07T10:30:49.493Z,854.16
2018-12-07T10:31:49.518Z,854.12
2018-12-07T10:32:49.479Z,854.03
2018-12-07T10:33:49.502Z,854.05
2018-12-07T10:34:49.446Z,854.02
2018-12-07T10:35:49.467Z,853.94
2018-12-07T10:36:49.428Z,853.96
2018-12-07T10:37:49.436Z,853.95
2018-12-07T10:38:49.449Z,853.91
2018-12-07T10:39:49.404Z,853.90
2018-12-07T10:40:49.394Z,853.88
2018-12-07T10:41:49.377Z,853.89
2018-12-07T10:42:49.366Z,853.88
2018-12-07T10:43:49.405Z,853.86
2018-12-07T10:44:49.374Z,853.82
2018-12-07T10:45:49.329Z,853.92
2018-12-07T10:46:49.322Z,853.84
2018-12-07T10:47:50.438Z,853.82
2018-12-07T10:48:49.292Z,853.80
2018-12-07T10:49:49.344Z,853.74
2018-12-07T10:50:49.269Z,853.71
2018-12-07T10:51:49.258Z,853.65
2018-12-07T10:52:49.248Z,853.63
2018-12-07T10:53:49.263Z,853.59
2018-12-07T10:54:49.272Z,853.60
2018-12-07T10:55:49.218Z,853.59
2018-12-07T10:56:49.256Z,853.59
2018-12-07T10:57:49.198Z,853.54
2018-12-07T10:58:49.210Z,853.56
2018-12-07T10:59:49.212Z,853.54
2018-12-07T11:00:49.162Z,853.55
2018-12-07T11:01:49.153Z,853.53
2018-12-07T11:02:49.142Z,853.50
2018-12-07T11:03:49.129Z,853.41
2018-12-07T11:04:49.175Z,853.39
2018-12-07T11:05:49.161Z,853.41
2018-12-07T11:06:49.139Z,853.42
2018-12-07T11:07:49.094Z,853.42
2018-12-07T11:08:49.104Z,853.39
2018-12-07T11:09:49.065Z,853.41
2018-12-07T11:10:49.112Z,853.46
2018-12-07T11:11:49.068Z,853.44
2018-12-07T11:12:49.050Z,853.45
2018-12-07T11:13:49.036Z,853.36
2018-12-07T11:14:49.036Z,853.36
2018-12-07T11:15:49.018Z,853.33
2018-12-07T11:16:48.991Z,853.30
2018-12-07T11:17:48.982Z,853.27
2018-12-07T11:18:48.983Z,853.23
2018-12-07T11:19:48.967Z,853.24
2018-12-07T11:20:49.001Z,853.21
2018-12-07T11:21:48.936Z,853.16
2018-12-07T11:22:48.935Z,853.13
2018-12-07T11:23:48.911Z,853.10
2018-12-07T11:24:48.997Z,853.10
2018-12-07T11:25:49.087Z,853.07
2018-12-07T11:26:48.949Z,853.02
2018-12-07T11:27:48.878Z,852.96
2018-12-07T11:28:48.863Z,852.99
2018-12-07T11:29:48.870Z,852.94
2018-12-07T11:30:48.850Z,852.93
2018-12-07T11:31:48.868Z,852.86
2018-12-07T11:32:48.829Z,852.87
2018-12-07T11:33:48.811Z,852.83
2018-12-07T11:34:48.792Z,852.78
2018-12-07T11:35:48.788Z,852.78
2018-12-07T11:36:48.798Z,852.76
2018-12-07T11:37:48.776Z,852.74
2018-12-07T11:38:48.755Z,852.65
2018-12-07T11:39:48.731Z,852.68
2018-12-07T11:40:48.719Z,852.54
2018-12-07T11:41:48.750Z,852.57
2018-12-07T11:42:48.701Z,852.55
2018-12-07T11:43:48.689Z,852.55
2018-12-07T11:44:48.705Z,852.50
2018-12-07T11:45:48.682Z,852.50
2018-12-07T11:46:48.694Z,852.43
2018-12-07T11:47:48.651Z,852.42
2018-12-07T11:48:48.650Z,852.35
2018-12-07T11:49:48.634Z,852.34
2018-12-07T11:50:48.632Z,852.36
2018-12-07T11:51:48.644Z,852.33
2018-12-07T11:52:48.606Z,852.31
2018-12-07T11:53:48.588Z,852.28
2018-12-07T11:54:48.569Z,852.24
2018-12-07T11:55:48.565Z,852.21
2018-12-07T11:56:48.589Z,852.19
2018-12-07T11:57:48.550Z,852.21
2018-12-07T11:58:48.586Z,852.12
2018-12-07T11:59:48.549Z,852.06
2018-12-07T12:00:48.506Z,852.10
2018-12-07T12:01:48.506Z,852.09
2018-12-07T12:02:48.494Z,852.06
2018-12-07T12:03:48.507Z,852.01
2018-12-07T12:04:48.460Z,852.02
2018-12-07T12:05:48.454Z,851.97
2018-12-07T12:06:48.465Z,851.95
2018-12-07T12:07:48.436Z,851.93
2018-12-07T12:08:48.461Z,851.93
2018-12-07T12:09:48.412Z,851.89
2018-12-07T12:10:48.400Z,851.86
2018-12-07T12:11:48.385Z,851.84
2018-12-07T12:12:48.376Z,851.91
2018-12-07T12:13:48.435Z,851.89
2018-12-07T12:14:48.358Z,851.89
2018-12-07T12:15:48.377Z,851.90
2018-12-07T12:16:48.345Z,851.88
2018-12-07T12:17:48.326Z,851.84
2018-12-07T12:18:48.369Z,851.83
2018-12-07T12:19:48.349Z,851.86
2018-12-07T12:20:48.332Z,851.82
2018-12-07T12:21:48.282Z,851.80
2018-12-07T12:22:48.271Z,851.86
2018-12-07T12:23:53.658Z,851.80
2018-12-07T12:24:49.247Z,851.76
2018-12-07T12:25:48.281Z,851.73
2018-12-07T12:26:48.259Z,851.72
2018-12-07T12:27:48.227Z,851.71
2018-12-07T12:28:48.217Z,851.69